Time;durP1;ratioP1;P1;durP2;ratioP2;P2;SDS_P1;SDS_P2;PMS_P1;PMS_P2;Temp;Humidity;BMP_temperature;BMP_pressure;BME280_temperature;BME280_humidity;BME280_pressure;Samples;Min_cycle;Max_cycle;Signal;HPM_P1;HPM_P2
2022/01/14 00:01:14;;;;;;;44.40;21.67;;;;;;;5.87;100.00;103495.50;4923998;28;20061;-75
2022/01/14 00:03:40;;;;;;;42.05;21.65;;;;;;;5.89;100.00;103499.72;4916076;28;20054;-74
2022/01/14 00:06:06;;;;;;;42.33;22.35;;;;;;;5.83;100.00;103500.22;4926842;28;20039;-75
2022/01/14 00:08:31;;;;;;;50.95;20.73;;;;;;;5.89;100.00;103498.88;4911274;28;20089;-75
2022/01/14 00:10:58;;;;;;;35.95;19.25;;;;;;;5.89;100.00;103497.06;4925115;28;20034;-74
2022/01/14 00:16:08;;;;;;;40.65;20.80;;;;;;;5.92;100.00;103502.22;4917729;28;20051;-75
2022/01/14 00:18:33;;;;;;;42.58;20.02;;;;;;;5.93;100.00;103495.91;4926330;28;20077;-75
2022/01/14 00:21:02;;;;;;;48.22;20.70;;;;;;;5.98;100.00;103488.38;4910555;28;20050;-74
2022/01/14 00:23:32;;;;;;;39.70;21.25;;;;;;;5.92;100.00;103493.31;4926231;28;20796;-75
2022/01/14 00:34:24;;;;;;;40.05;18.80;;;;;;;5.85;100.00;103478.69;4895594;28;20779;-74
2022/01/14 00:36:49;;;;;;;41.20;19.23;;;;;;;5.82;100.00;103477.09;4925857;28;20035;-74
2022/01/14 00:39:15;;;;;;;39.85;17.77;;;;;;;5.88;100.00;103476.63;4911405;28;20261;-74
2022/01/14 00:41:41;;;;;;;34.05;18.00;;;;;;;5.87;100.00;103472.25;4926691;28;20034;-75
2022/01/14 00:44:11;;;;;;;42.83;18.42;;;;;;;5.90;100.00;103468.50;4918517;28;20043;-74
2022/01/14 00:46:38;;;;;;;37.08;18.85;;;;;;;5.87;100.00;103485.63;4916472;28;20066;-74
2022/01/14 00:49:03;;;;;;;38.03;18.55;;;;;;;5.86;100.00;103477.72;4922926;28;20138;-75
2022/01/14 00:51:29;;;;;;;43.53;19.33;;;;;;;5.84;100.00;103480.50;4908241;28;20050;-73
2022/01/14 00:53:54;;;;;;;46.15;18.52;;;;;;;5.85;100.00;103478.69;4923842;28;20100;-74
2022/01/14 00:56:26;;;;;;;38.67;17.65;;;;;;;5.86;100.00;103483.06;4916573;28;20145;-74
2022/01/14 00:59:14;;;;;;;40.80;19.08;;;;;;;5.89;100.00;103481.00;4913151;28;20051;-73
2022/01/14 01:01:51;;;;;;;34.55;18.02;;;;;;;5.88;100.00;103479.31;4925188;28;20058;-74
2022/01/14 01:04:34;;;;;;;46.28;17.25;;;;;;;5.92;100.00;103472.78;4911416;28;20050;-74
2022/01/14 01:07:01;;;;;;;30.75;17.42;;;;;;;5.90;100.00;103480.06;4922784;28;20031;-74
2022/01/14 01:09:29;;;;;;;42.03;19.00;;;;;;;5.94;100.00;103475.34;4908991;28;20062;-74
2022/01/14 01:12:08;;;;;;;37.75;19.10;;;;;;;5.89;100.00;103464.94;4925569;28;20116;-74
2022/01/14 01:14:45;;;;;;;36.58;18.85;;;;;;;5.89;100.00;103469.44;4914869;28;20054;-74
2022/01/14 01:17:12;;;;;;;41.95;19.80;;;;;;;5.86;100.00;103462.53;4924258;28;20031;-74
2022/01/14 01:19:37;;;;;;;34.28;19.20;;;;;;;5.89;100.00;103467.63;4924691;28;20065;-74
2022/01/14 01:22:03;;;;;;;40.00;20.30;;;;;;;5.87;100.00;103464.22;4909899;28;21234;-74
2022/01/14 01:24:29;;;;;;;38.13;18.40;;;;;;;5.91;100.00;103465.69;4926122;28;20043;-74
2022/01/14 01:26:55;;;;;;;40.92;19.17;;;;;;;5.88;100.00;103467.75;4893553;28;20046;-74
2022/01/14 01:31:53;;;;;;;38.00;18.00;;;;;;;5.90;100.00;103461.31;4925871;28;20221;-73
2022/01/14 01:34:24;;;;;;;35.42;17.73;;;;;;;5.93;100.00;103463.81;4893756;28;20420;-74
2022/01/14 01:36:54;;;;;;;40.13;18.20;;;;;;;5.93;100.00;103465.59;4926266;28;20073;-74
2022/01/14 01:39:28;;;;;;;45.58;17.45;;;;;;;5.93;100.00;103462.91;4912190;28;20899;-74
2022/01/14 01:41:54;;;;;;;;;;;;;;;5.86;100.00;103456.31;4925526;28;20116;-74
2022/01/14 01:44:21;;;;;;;41.90;17.33;;;;;;;5.88;100.00;103455.22;4934562;28;19928;-74
2022/01/14 01:46:48;;;;;;;31.88;17.30;;;;;;;5.89;100.00;103456.94;4914647;28;20051;-75
2022/01/14 01:49:15;;;;;;;40.08;18.40;;;;;;;5.84;100.00;103452.91;4926604;28;20039;-75
2022/01/14 01:51:43;;;;;;;42.00;18.70;;;;;;;5.87;100.00;103447.34;4907375;28;20070;-75
2022/01/14 01:54:08;;;;;;;43.05;19.45;;;;;;;5.86;100.00;103449.16;4924965;28;20027;-74
2022/01/14 01:56:34;;;;;;;42.08;21.13;;;;;;;5.83;100.00;103444.03;4933486;28;21143;-74
2022/01/14 01:59:00;;;;;;;35.20;18.10;;;;;;;5.88;100.00;103454.38;4914248;28;20054;-74
2022/01/14 02:01:26;;;;;;;39.85;20.73;;;;;;;5.85;100.00;103444.75;4925600;28;20066;-74
2022/01/14 02:03:53;;;;;;;36.90;21.73;;;;;;;5.80;100.00;103444.28;4908911;28;20145;-74
2022/01/14 02:06:20;;;;;;;41.35;22.33;;;;;;;5.78;100.00;103432.81;4925425;28;20961;-74
2022/01/14 02:08:46;;;;;;;41.83;21.55;;;;;;;5.82;100.00;103436.97;4922098;28;20055;-74
2022/01/14 02:11:11;;;;;;;43.95;22.75;;;;;;;5.77;100.00;103441.84;4916227;28;20062;-74
2022/01/14 02:13:37;;;;;;;42.33;23.08;;;;;;;5.77;100.00;103444.50;4923259;28;20107;-74
2022/01/14 02:18:49;;;;;;;42.42;24.27;;;;;;;5.73;100.00;103435.03;4923866;28;23837;-74
2022/01/14 02:26:46;;;;;;;48.65;24.05;;;;;;;5.80;100.00;103432.72;4935689;28;20133;-73
2022/01/14 02:29:11;;;;;;;48.63;24.55;;;;;;;5.86;100.00;103433.13;4918988;28;20526;-72
2022/01/14 02:31:37;;;;;;;44.58;23.27;;;;;;;5.87;100.00;103434.81;4929805;28;20074;-73
2022/01/14 02:34:02;;;;;;;44.10;23.05;;;;;;;5.85;100.00;103434.06;4913148;28;20090;-73
2022/01/14 02:36:28;;;;;;;44.47;22.92;;;;;;;5.87;100.00;103436.63;4927230;28;20146;-73
2022/01/14 02:38:54;;;;;;;47.53;23.70;;;;;;;5.86;100.00;103434.91;4921198;28;20058;-72
2022/01/14 02:41:19;;;;;;;49.08;23.98;;;;;;;5.82;100.00;103428.94;4917990;28;20046;-73
2022/01/14 02:43:45;;;;;;;46.45;24.05;;;;;;;5.82;100.00;103428.94;4928574;28;20702;-71
2022/01/14 02:46:10;;;;;;;50.50;24.05;;;;;;;5.81;100.00;103437.94;4913553;28;20051;-72
2022/01/14 02:48:36;;;;;;;41.20;23.90;;;;;;;5.84;100.00;103432.38;4928414;28;20035;-72
2022/01/14 02:51:13;;;;;;;44.00;25.00;;;;;;;5.82;100.00;103433.44;4919321;28;20042;-72
2022/01/14 02:56:10;;;;;;;46.65;25.35;;;;;;;5.83;100.00;103428.00;4927836;28;20042;-72
2022/01/14 02:58:37;;;;;;;48.28;26.42;;;;;;;5.80;100.00;103430.91;4913491;28;20067;-72
2022/01/14 03:01:09;;;;;;;44.85;24.92;;;;;;;5.83;100.00;103430.66;4926682;28;20583;-72
2022/01/14 03:03:35;;;;;;;52.85;24.33;;;;;;;5.81;100.00;103415.69;4912535;28;20171;-72
2022/01/14 03:06:02;;;;;;;46.47;24.67;;;;;;;5.87;100.00;103405.38;4926930;28;20487;-72
2022/01/14 03:08:27;;;;;;;51.42;25.67;;;;;;;5.83;100.00;103403.06;4923471;28;20041;-72
2022/01/14 03:10:57;;;;;;;48.35;25.55;;;;;;;5.89;100.00;103400.75;4914170;28;20047;-72
2022/01/14 03:13:23;;;;;;;44.55;24.90;;;;;;;5.81;100.00;103395.16;4925909;28;20538;-72
2022/01/14 03:15:48;;;;;;;60.90;25.70;;;;;;;5.87;100.00;103402.72;4913018;28;20051;-72
2022/01/14 03:18:17;;;;;;;49.75;26.83;;;;;;;5.81;100.00;103389.81;4909250;28;20498;-72
2022/01/14 03:20:48;;;;;;;50.03;27.38;;;;;;;5.82;100.00;103399.53;4919101;28;20239;-72
2022/01/14 03:23:15;;;;;;;52.38;25.90;;;;;;;5.79;100.00;103399.78;4916721;28;20050;-72
2022/01/14 03:25:51;;;;;;;50.72;26.67;;;;;;;5.94;100.00;103403.97;4926448;28;20082;-72
2022/01/14 03:28:21;;;;;;;56.92;26.25;;;;;;;5.96;100.00;103407.34;4908305;28;20063;-73
2022/01/14 03:30:48;;;;;;;47.13;24.95;;;;;;;5.94;100.00;103395.94;4925023;28;20023;-72
2022/01/14 03:33:13;;;;;;;38.72;23.98;;;;;;;5.94;100.00;103385.25;4918318;28;20069;-72
2022/01/14 03:35:41;;;;;;;52.95;24.55;;;;;;;5.96;100.00;103398.47;4919182;28;20444;-73
2022/01/14 03:38:06;;;;;;;46.72;25.50;;;;;;;5.94;100.00;103405.78;4942197;28;20045;-72
2022/01/14 03:40:32;;;;;;;59.42;24.85;;;;;;;5.97;100.00;103395.69;4912542;28;20074;-73
2022/01/14 03:42:57;;;;;;;48.50;24.67;;;;;;;5.96;100.00;103387.78;4927637;28;20987;-73
2022/01/14 03:45:23;;;;;;;41.88;23.38;;;;;;;5.96;100.00;103388.63;4902529;28;20070;-72
2022/01/14 03:47:48;;;;;;;56.53;25.65;;;;;;;5.95;100.00;103392.28;4901346;28;21094;-72
2022/01/14 03:50:13;;;;;;;42.47;25.10;;;;;;;5.98;100.00;103391.19;4927873;28;20031;-72
2022/01/14 03:52:39;;;;;;;50.25;26.45;;;;;;;5.92;100.00;103392.53;4909149;28;20173;-72
2022/01/14 03:55:05;;;;;;;48.72;25.92;;;;;;;5.98;100.00;103391.19;4926645;28;20043;-72
2022/01/14 03:57:30;;;;;;;54.85;24.75;;;;;;;6.00;100.00;103388.38;4912643;28;20059;-72
2022/01/14 03:59:56;;;;;;;55.83;26.80;;;;;;;5.94;100.00;103377.22;4926651;28;20039;-72
2022/01/14 04:02:21;;;;;;;53.92;28.33;;;;;;;5.95;100.00;103376.22;4926839;28;20125;-72
2022/01/14 04:04:47;;;;;;;46.50;25.73;;;;;;;6.05;100.00;103383.53;4895303;28;20154;-72
2022/01/14 04:07:12;;;;;;;54.03;26.52;;;;;;;5.95;100.00;103381.59;4925474;28;20050;-73
2022/01/14 04:09:37;;;;;;;53.40;28.35;;;;;;;6.04;100.00;103373.78;4892279;28;20059;-73
2022/01/14 04:12:04;;;;;;;51.47;26.38;;;;;;;6.07;100.00;103376.22;4906593;28;20643;-72
2022/01/14 04:16:59;;;;;;;47.85;27.05;;;;;;;6.07;100.00;103363.72;4906964;28;20138;-73
2022/01/14 04:19:26;;;;;;;47.83;25.95;;;;;;;6.03;100.00;103356.03;4921794;28;20035;-73
2022/01/14 04:21:52;;;;;;;56.85;26.30;;;;;;;5.93;100.00;103348.75;4889178;28;20089;-73
2022/01/14 04:24:17;;;;;;;54.72;27.48;;;;;;;6.04;100.00;103349.72;4925211;28;20543;-72
2022/01/14 04:26:42;;;;;;;46.35;27.80;;;;;;;6.00;100.00;103345.56;4922968;28;20045;-73
2022/01/14 04:29:08;;;;;;;51.70;25.27;;;;;;;6.00;100.00;103335.72;4910309;28;20039;-73
2022/01/14 04:31:33;;;;;;;47.13;26.83;;;;;;;5.94;100.00;103318.34;4925986;28;20030;-73
2022/01/14 04:33:59;;;;;;;56.88;28.08;;;;;;;5.87;100.00;103319.78;4907314;28;20094;-73
2022/01/14 04:36:24;;;;;;;43.55;26.13;;;;;;;5.79;100.00;103308.84;4923787;28;20069;-72
2022/01/14 04:38:49;;;;;;;66.72;28.00;;;;;;;5.69;100.00;103313.22;4925632;28;20514;-73
2022/01/14 04:41:15;;;;;;;55.75;28.00;;;;;;;5.61;100.00;103302.25;4908393;28;20055;-72
2022/01/14 04:43:40;;;;;;;50.05;27.42;;;;;;;5.51;100.00;103302.13;4923548;28;20039;-73
2022/01/14 04:48:33;;;;;;;50.17;28.95;;;;;;;5.42;100.00;103306.34;4925996;28;20049;-73
2022/01/14 04:51:00;;;;;;;59.83;28.00;;;;;;;5.37;100.00;103310.34;4924077;28;23811;-73
2022/01/14 04:53:26;;;;;;;46.90;28.08;;;;;;;5.40;100.00;103307.44;4910535;28;20098;-73
2022/01/14 04:55:52;;;;;;;54.88;30.27;;;;;;;5.49;100.00;103294.22;4924225;28;20122;-72
2022/01/14 04:58:18;;;;;;;58.80;30.58;;;;;;;5.58;100.00;103299.81;4909084;28;20069;-72
2022/01/14 05:00:44;;;;;;;51.00;28.17;;;;;;;5.65;100.00;103293.00;4923345;28;20038;-72
2022/01/14 05:03:09;;;;;;;53.70;28.17;;;;;;;5.69;100.00;103297.16;4922089;28;20034;-72
2022/01/14 05:05:39;;;;;;;48.63;27.67;;;;;;;5.70;100.00;103290.84;4911634;28;20784;-72
2022/01/14 05:08:09;;;;;;;47.90;27.15;;;;;;;5.73;100.00;103290.59;4922644;28;20035;-72
2022/01/14 05:10:47;;;;;;;47.95;27.08;;;;;;;5.73;100.00;103290.59;4910769;28;20050;-72
2022/01/14 05:13:13;;;;;;;53.72;26.80;;;;;;;5.75;100.00;103291.31;4924265;28;20030;-74
2022/01/14 05:15:38;;;;;;;48.50;26.27;;;;;;;5.79;100.00;103294.59;4901395;28;20114;-71
2022/01/14 05:18:04;;;;;;;48.63;26.45;;;;;;;5.83;100.00;103296.94;4913966;28;20058;-73
2022/01/14 05:20:30;;;;;;;49.08;27.10;;;;;;;5.86;100.00;103296.69;4925775;28;20045;-73
2022/01/14 05:22:55;;;;;;;48.40;25.52;;;;;;;5.97;100.00;103296.72;4909366;28;20522;-72
2022/01/14 05:25:20;;;;;;;49.40;27.73;;;;;;;6.01;100.00;103307.16;4940328;28;20039;-72
2022/01/14 05:27:46;;;;;;;44.88;25.15;;;;;;;6.02;100.00;103308.88;4919858;28;20039;-72
2022/01/14 05:30:13;;;;;;;41.38;25.42;;;;;;;6.12;100.00;103317.84;4916825;28;20077;-72
2022/01/14 05:32:47;;;;;;;51.03;24.73;;;;;;;6.11;100.00;103308.13;4924238;28;21810;-72
2022/01/14 05:35:15;;;;;;;50.90;24.98;;;;;;;6.12;100.00;103299.97;4909138;28;20130;-72
2022/01/14 05:37:40;;;;;;;48.38;25.90;;;;;;;6.12;100.00;103307.16;4922514;28;20086;-72
2022/01/14 05:40:06;;;;;;;43.47;25.23;;;;;;;6.10;100.00;103317.13;4910452;28;20579;-73
2022/01/14 05:42:34;;;;;;;45.58;25.92;;;;;;;6.14;100.00;103315.88;4921092;28;20039;-72
2022/01/14 05:45:00;;;;;;;49.75;26.33;;;;;;;6.12;100.00;103320.53;4937553;28;20039;-74
2022/01/14 05:47:25;;;;;;;43.35;24.80;;;;;;;6.16;100.00;103313.97;4911785;28;20059;-74
2022/01/14 05:49:51;;;;;;;46.05;26.20;;;;;;;6.12;100.00;103325.88;4928124;28;20479;-75
2022/01/14 05:52:17;;;;;;;50.20;25.52;;;;;;;5.99;100.00;103323.31;4914041;28;20046;-74
2022/01/14 05:54:43;;;;;;;40.15;26.48;;;;;;;6.06;100.00;103334.41;4942316;28;20069;-74
2022/01/14 05:57:08;;;;;;;59.17;27.65;;;;;;;5.98;100.00;103338.53;4927185;28;20058;-75
2022/01/14 05:59:34;;;;;;;52.42;26.70;;;;;;;6.05;100.00;103344.25;4915233;28;20141;-74
2022/01/14 06:02:00;;;;;;;52.22;27.70;;;;;;;6.04;100.00;103339.00;4936514;28;20980;-75
2022/01/14 06:04:25;;;;;;;56.83;27.95;;;;;;;5.98;100.00;103337.69;4903507;28;20456;-75
2022/01/14 06:06:51;;;;;;;52.95;28.27;;;;;;;5.88;100.00;103332.16;4938711;28;20153;-74
2022/01/14 06:09:17;;;;;;;50.28;29.98;;;;;;;5.90;100.00;103340.09;4939368;28;20031;-75
2022/01/14 06:11:42;;;;;;;51.88;29.70;;;;;;;5.87;100.00;103340.34;4937957;28;20061;-75
2022/01/14 06:14:08;;;;;;;47.38;28.50;;;;;;;5.83;100.00;103334.38;4955455;28;20120;-75
2022/01/14 06:16:33;;;;;;;55.83;29.48;;;;;;;5.88;100.00;103331.31;4934833;28;20043;-74
2022/01/14 06:18:59;;;;;;;52.42;29.75;;;;;;;5.91;100.00;103328.41;4950214;28;20034;-74
2022/01/14 06:21:24;;;;;;;53.08;28.70;;;;;;;5.78;100.00;103323.16;4934001;28;20138;-75
2022/01/14 06:23:49;;;;;;;61.63;30.13;;;;;;;5.74;100.00;103319.03;4936140;28;20096;-74
2022/01/14 06:26:15;;;;;;;56.38;32.00;;;;;;;5.80;100.00;103328.41;4933820;28;20042;-74
2022/01/14 06:28:42;;;;;;;51.85;30.35;;;;;;;5.87;100.00;103329.63;4932560;28;20043;-74
2022/01/14 06:31:07;;;;;;;60.83;31.17;;;;;;;5.85;100.00;103329.72;4950776;28;20153;-74
2022/01/14 06:33:33;;;;;;;53.83;30.58;;;;;;;5.80;100.00;103329.25;4941552;28;20909;-75
2022/01/14 06:35:58;;;;;;;42.95;28.80;;;;;;;5.90;100.00;103335.59;4928637;28;22209;-73
2022/01/14 06:38:24;;;;;;;53.47;28.83;;;;;;;5.85;100.00;103326.22;4940260;28;20120;-74
2022/01/14 06:40:49;;;;;;;57.95;30.10;;;;;;;5.82;100.00;103324.63;4925691;28;20055;-74
2022/01/14 06:43:15;;;;;;;47.05;29.70;;;;;;;5.81;100.00;103325.59;4935049;28;20050;-74
2022/01/14 06:45:42;;;;;;;54.85;30.67;;;;;;;5.83;100.00;103322.81;4935664;28;20034;-74
2022/01/14 06:48:09;;;;;;;50.08;29.33;;;;;;;5.85;100.00;103324.38;4924375;28;20847;-75
2022/01/14 06:50:34;;;;;;;54.90;29.17;;;;;;;5.85;100.00;103337.75;4950595;28;20045;-74
2022/01/14 06:53:00;;;;;;;55.33;29.52;;;;;;;5.92;100.00;103339.00;4933996;28;20055;-75
2022/01/14 06:55:25;;;;;;;50.22;29.77;;;;;;;5.93;100.00;103339.84;4947007;28;20039;-73
2022/01/14 06:57:51;;;;;;;48.08;26.92;;;;;;;6.01;100.00;103329.41;4939387;28;20050;-74
2022/01/14 07:00:18;;;;;;;46.35;27.45;;;;;;;5.95;100.00;103327.22;4918561;28;20802;-74
2022/01/14 07:02:43;;;;;;;49.55;26.77;;;;;;;5.97;100.00;103336.84;4914864;28;20201;-75
2022/01/14 07:05:10;;;;;;;46.13;26.67;;;;;;;5.93;100.00;103335.38;4917945;28;20059;-75
2022/01/14 07:07:36;;;;;;;46.85;26.58;;;;;;;5.92;100.00;103319.41;4921216;28;20050;-75
2022/01/14 07:10:06;;;;;;;53.88;27.45;;;;;;;6.01;100.00;103331.25;4943742;28;20033;-74
2022/01/14 07:12:37;;;;;;;42.58;24.95;;;;;;;5.95;100.00;103322.72;4923329;28;20051;-73
2022/01/14 07:15:08;;;;;;;41.03;23.40;;;;;;;5.98;100.00;103327.84;4931405;28;20061;-75
2022/01/14 07:17:34;;;;;;;47.70;23.27;;;;;;;6.00;100.00;103332.19;4917995;28;20057;-74
2022/01/14 07:20:05;;;;;;;43.67;22.20;;;;;;;6.04;100.00;103336.34;4917507;28;20035;-73
2022/01/14 07:22:31;;;;;;;50.45;23.42;;;;;;;6.05;100.00;103343.41;4928732;28;20853;-74
2022/01/14 07:24:58;;;;;;;42.42;22.33;;;;;;;6.01;100.00;103341.94;4908770;28;20059;-74
2022/01/14 07:27:23;;;;;;;46.65;23.75;;;;;;;6.04;100.00;103339.00;4932290;28;20062;-72
2022/01/14 07:29:49;;;;;;;38.22;22.05;;;;;;;6.09;100.00;103331.47;4914057;28;22454;-73
2022/01/14 07:32:14;;;;;;;44.40;21.63;;;;;;;6.08;100.00;103337.81;4926159;28;20050;-75
2022/01/14 07:34:40;;;;;;;43.50;21.00;;;;;;;6.08;100.00;103344.00;4922213;28;20062;-73
2022/01/14 07:37:05;;;;;;;43.03;21.35;;;;;;;6.15;100.00;103347.06;4917375;28;20141;-74
2022/01/14 07:39:31;;;;;;;47.20;20.88;;;;;;;6.17;100.00;103350.44;4911451;28;20085;-73
2022/01/14 07:41:56;;;;;;;40.90;20.20;;;;;;;6.20;100.00;103355.56;4912064;28;20873;-73
2022/01/14 07:44:22;;;;;;;44.15;21.00;;;;;;;6.16;100.00;103348.75;4911554;28;24138;-74
2022/01/14 07:46:47;;;;;;;46.63;20.60;;;;;;;6.15;100.00;103352.41;4924075;28;21109;-75
2022/01/14 07:49:13;;;;;;;39.65;20.20;;;;;;;6.14;100.00;103356.91;4917059;28;20055;-74
2022/01/14 07:51:39;;;;;;;36.15;18.20;;;;;;;6.17;100.00;103358.47;4925118;28;20041;-74
2022/01/14 07:54:05;;;;;;;40.63;19.48;;;;;;;6.16;100.00;103362.97;4911986;28;20059;-74
2022/01/14 07:56:33;;;;;;;35.22;19.00;;;;;;;6.20;100.00;103353.72;4927008;28;20058;-74
2022/01/14 07:58:59;;;;;;;46.22;19.05;;;;;;;6.18;100.00;103361.03;4905481;28;20157;-74
2022/01/14 08:01:25;;;;;;;41.33;18.17;;;;;;;6.21;100.00;103360.81;4936951;28;20436;-74
2022/01/14 08:03:50;;;;;;;46.08;18.52;;;;;;;6.28;100.00;103366.50;4921958;28;20936;-74
2022/01/14 08:06:17;;;;;;;39.85;16.70;;;;;;;6.25;100.00;103366.75;4905975;28;20047;-74
2022/01/14 08:08:43;;;;;;;40.97;17.40;;;;;;;6.32;100.00;103362.63;4921700;28;20066;-74
2022/01/14 08:11:08;;;;;;;33.05;16.00;;;;;;;6.34;100.00;103374.03;4906056;28;22108;-74
2022/01/14 08:13:34;;;;;;;33.40;15.77;;;;;;;6.39;100.00;103369.19;4924520;28;20039;-74
2022/01/14 08:15:59;;;;;;;33.72;15.23;;;;;;;6.39;100.00;103363.81;4921750;28;20101;-73
2022/01/14 08:18:25;;;;;;;31.95;15.27;;;;;;;6.38;100.00;103367.44;4894212;28;21020;-74
2022/01/14 08:20:51;;;;;;;36.70;16.00;;;;;;;6.37;100.00;103368.44;4922887;28;20042;-74
2022/01/14 08:23:18;;;;;;;35.83;16.63;;;;;;;6.43;100.00;103362.59;4908265;28;20235;-74
2022/01/14 08:25:44;;;;;;;39.63;15.15;;;;;;;6.41;100.00;103367.22;4907791;28;20057;-74
2022/01/14 08:28:10;;;;;;;35.63;15.02;;;;;;;6.45;100.00;103363.31;4923062;28;20031;-74
2022/01/14 08:30:35;;;;;;;35.55;13.68;;;;;;;6.48;100.00;103353.34;4907825;28;20116;-73
2022/01/14 08:33:01;;;;;;;36.72;15.98;;;;;;;6.45;100.00;103352.59;4925043;28;20045;-73
2022/01/14 08:35:26;;;;;;;28.77;14.02;;;;;;;6.49;100.00;103358.56;4910170;28;20057;-74
2022/01/14 08:37:52;;;;;;;31.30;13.77;;;;;;;6.49;100.00;103363.91;4907586;28;20133;-74
2022/01/14 08:40:17;;;;;;;25.67;13.57;;;;;;;6.57;100.00;103356.13;4922466;28;20506;-74
2022/01/14 08:42:45;;;;;;;24.63;13.20;;;;;;;6.58;100.00;103359.66;4907676;28;20885;-74
2022/01/14 08:45:10;;;;;;;33.25;13.48;;;;;;;6.61;100.00;103352.22;4924731;28;20043;-74
2022/01/14 08:47:36;;;;;;;33.25;12.05;;;;;;;6.59;100.00;103347.94;4909239;28;20093;-73
2022/01/14 08:50:02;;;;;;;33.80;12.73;;;;;;;6.66;100.00;103349.16;4924232;28;20035;-74
2022/01/14 08:52:28;;;;;;;29.17;11.85;;;;;;;6.66;100.00;103357.19;4925199;28;20042;-73
2022/01/14 08:54:53;;;;;;;33.50;12.05;;;;;;;6.69;100.00;103359.63;4910078;28;20155;-73
2022/01/14 08:57:19;;;;;;;36.67;10.65;;;;;;;6.75;100.00;103355.59;4926018;28;20436;-74
2022/01/14 08:59:44;;;;;;;27.65;10.35;;;;;;;6.85;100.00;103365.44;4913831;28;20055;-74
2022/01/14 09:02:10;;;;;;;31.48;10.77;;;;;;;6.87;100.00;103359.94;4925410;28;20479;-74
2022/01/14 09:04:35;;;;;;;26.55;10.60;;;;;;;6.90;100.00;103360.53;4924045;28;20035;-74
2022/01/14 09:07:01;;;;;;;31.35;11.30;;;;;;;6.95;100.00;103370.88;4909214;28;20059;-75
2022/01/14 09:09:27;;;;;;;27.27;9.73;;;;;;;7.03;100.00;103367.56;4923456;28;20126;-75
2022/01/14 09:11:54;;;;;;;26.67;9.45;;;;;;;7.02;100.00;103365.84;4911334;28;20043;-75
2022/01/14 09:14:21;;;;;;;21.23;9.20;;;;;;;7.08;100.00;103378.72;4907421;28;22118;-75
2022/01/14 09:16:47;;;;;;;30.55;9.90;;;;;;;7.14;100.00;103370.19;4903756;28;20081;-75
2022/01/14 09:19:12;;;;;;;25.23;8.95;;;;;;;7.21;100.00;103374.06;4909891;28;20508;-75
2022/01/14 09:21:38;;;;;;;24.30;8.23;;;;;;;7.27;100.00;103368.19;4907044;28;20035;-73
2022/01/14 09:24:03;;;;;;;25.88;8.73;;;;;;;7.32;100.00;103367.78;4911371;28;20051;-75
2022/01/14 09:26:36;;;;;;;22.30;7.53;;;;;;;7.37;100.00;103365.56;4923095;28;20043;-75
2022/01/14 09:29:03;;;;;;;22.90;7.63;;;;;;;7.35;100.00;103367.53;4915483;28;20105;-74
2022/01/14 09:31:29;;;;;;;27.45;7.55;;;;;;;7.35;100.00;103364.84;4896660;28;20105;-75
2022/01/14 09:33:54;;;;;;;23.23;7.53;;;;;;;7.43;100.00;103370.41;4925957;28;20490;-74
2022/01/14 09:36:20;;;;;;;22.50;7.13;;;;;;;7.48;100.00;103384.28;4906064;28;20075;-74
2022/01/14 09:38:45;;;;;;;17.13;6.65;;;;;;;7.49;100.00;103375.25;4907672;28;20030;-75
2022/01/14 09:41:13;;;;;;;19.77;6.93;;;;;;;7.46;100.00;103377.34;4918110;28;20035;-75
2022/01/14 09:43:39;;;;;;;19.15;6.10;;;;;;;7.55;100.00;103379.25;4911133;28;20053;-74
2022/01/14 09:46:08;;;;;;;18.42;5.70;;;;;;;7.53;100.00;103373.16;4922441;28;20431;-73
2022/01/14 09:48:35;;;;;;;23.70;5.95;;;;;;;7.55;100.00;103372.06;4890498;28;20085;-74
2022/01/14 09:51:01;;;;;;;23.30;6.20;;;;;;;7.60;100.00;103374.34;4906811;28;20031;-74
2022/01/14 09:53:28;;;;;;;22.23;5.53;;;;;;;7.66;100.00;103368.44;4931160;28;20074;-74
2022/01/14 09:55:53;;;;;;;19.52;5.63;;;;;;;7.73;100.00;103377.69;4897317;28;20786;-74
2022/01/14 09:58:22;;;;;;;20.67;5.63;;;;;;;7.80;100.00;103384.22;4904614;28;20059;-75
2022/01/14 10:00:48;;;;;;;18.20;4.78;;;;;;;7.85;100.00;103378.44;4911123;28;20150;-73
2022/01/14 10:03:26;;;;;;;21.50;5.25;;;;;;;7.86;100.00;103378.31;4914088;28;20058;-74
2022/01/14 10:05:56;;;;;;;18.73;4.72;;;;;;;7.93;100.00;103383.13;4928636;28;20042;-75
2022/01/14 10:08:26;;;;;;;17.38;5.28;;;;;;;7.84;100.00;103380.28;4939839;28;20093;-74
2022/01/14 10:11:00;;;;;;;18.75;4.53;;;;;;;7.85;100.00;103389.16;4923723;28;20037;-76
2022/01/14 10:13:30;;;;;;;20.67;5.15;;;;;;;7.87;100.00;103390.75;4906930;28;20062;-75
2022/01/14 10:16:05;;;;;;;23.95;7.50;;;;;;;7.93;100.00;103412.66;4921679;28;20043;-74
2022/01/14 10:18:33;;;;;;;49.33;15.05;;;;;;;7.92;100.00;103408.28;4892836;28;20129;-74
2022/01/14 10:21:06;;;;;;;33.13;10.98;;;;;;;8.05;100.00;103414.28;4925851;28;20044;-75
2022/01/14 10:23:59;;;;;;;20.30;6.50;;;;;;;8.02;100.00;103406.50;4917538;28;20057;-72
2022/01/14 10:26:26;;;;;;;17.15;5.53;;;;;;;8.10;100.00;103417.41;4904288;28;20038;-75
2022/01/14 10:29:06;;;;;;;32.47;10.70;;;;;;;7.99;100.00;103406.75;4924081;28;20093;-74
2022/01/14 10:31:35;;;;;;;33.75;9.18;;;;;;;8.06;100.00;103432.09;4909897;28;20051;-74
2022/01/14 10:34:12;;;;;;;38.47;14.80;;;;;;;7.88;100.00;103421.97;4939162;28;20503;-75
2022/01/14 10:36:38;;;;;;;30.50;9.45;;;;;;;7.78;100.00;103426.41;4904652;28;20142;-76
2022/01/14 10:39:24;;;;;;;43.75;17.70;;;;;;;7.85;100.00;103438.31;4922488;28;20039;-74
2022/01/14 10:41:51;;;;;;;46.00;17.25;;;;;;;7.94;100.00;103436.69;4899026;28;20047;-74
2022/01/14 10:44:30;;;;;;;18.25;7.45;;;;;;;7.88;100.00;103424.63;4918146;28;20110;-75
2022/01/14 10:47:16;;;;;;;44.90;19.35;;;;;;;7.93;100.00;103436.81;4909077;28;20038;-76
2022/01/14 10:49:43;;;;;;;40.90;14.63;;;;;;;7.88;100.00;103437.22;4919354;28;20051;-74
2022/01/14 10:52:10;;;;;;;34.25;12.98;;;;;;;7.87;100.00;103439.06;4927418;28;20030;-76
2022/01/14 10:54:44;;;;;;;34.30;11.88;;;;;;;7.94;100.00;103430.47;4913989;28;20070;-74
2022/01/14 10:57:16;;;;;;;57.95;21.40;;;;;;;7.92;100.00;103429.75;4927039;28;20051;-75
2022/01/14 10:59:42;;;;;;;44.22;16.98;;;;;;;7.93;100.00;103428.75;4921660;28;20055;-74
2022/01/14 11:02:38;;;;;;;44.25;15.70;;;;;;;7.99;100.00;103425.56;4916922;28;20047;-74
2022/01/14 11:05:11;;;;;;;29.40;12.40;;;;;;;8.00;100.00;103427.25;4924601;28;20494;-74
2022/01/14 11:07:38;;;;;;;33.53;11.38;;;;;;;8.13;100.00;103436.78;4915182;28;20141;-74
2022/01/14 11:10:20;;;;;;;29.98;9.63;;;;;;;8.12;100.00;103431.56;4929029;28;20600;-74
2022/01/14 11:12:46;;;;;;;19.33;5.22;;;;;;;8.06;100.00;103424.03;4911903;28;20074;-74
2022/01/14 11:15:12;;;;;;;28.00;13.15;;;;;;;8.15;100.00;103431.31;4927024;28;20031;-74
2022/01/14 11:17:40;;;;;;;50.67;23.05;;;;;;;8.09;100.00;103430.00;4924060;28;20497;-74
2022/01/14 11:20:11;;;;;;;33.25;8.15;;;;;;;8.06;100.00;103426.72;4916794;28;20058;-75
2022/01/14 11:25:21;;;;;;;23.20;6.13;;;;;;;8.07;100.00;103420.34;4907463;28;20055;-72
2022/01/14 11:27:49;;;;;;;37.75;8.18;;;;;;;8.13;100.00;103425.19;4924935;28;20969;-72
2022/01/14 11:30:15;;;;;;;29.90;7.65;;;;;;;8.17;100.00;103434.69;4910534;28;20597;-72
2022/01/14 11:32:55;;;;;;;35.20;5.80;;;;;;;8.07;100.00;103413.19;4926509;28;20038;-72
2022/01/14 11:35:25;;;;;;;24.83;8.15;;;;;;;8.06;100.00;103424.03;4921571;28;20045;-75
2022/01/14 11:37:50;;;;;;;16.10;4.25;;;;;;;8.10;100.00;103422.78;4917380;28;20482;-75
2022/01/14 11:40:17;;;;;;;25.27;5.47;;;;;;;8.00;100.00;103421.88;4926314;28;20043;-75
2022/01/14 11:42:58;;;;;;;29.38;6.00;;;;;;;7.94;100.00;103430.47;4909677;28;20046;-75
2022/01/14 11:45:40;;;;;;;23.80;5.35;;;;;;;8.06;100.00;103422.19;4925224;28;20035;-74